Time;durP1;ratioP1;P1;durP2;ratioP2;P2;SDS_P1;SDS_P2;PMS_P1;PMS_P2;Temp;Humidity;BMP_temperature;BMP_pressure;BME280_temperature;BME280_humidity;BME280_pressure;Samples;Min_cycle;Max_cycle;Signal;HPM_P1;HPM_P2
2022/01/20 00:01:12;;;;;;;10.00;7.67;;;;;;;3.58;100.00;99612.72;4960654;29;20676;-83
2022/01/20 00:03:42;;;;;;;9.30;6.73;;;;;;;3.62;100.00;99616.09;4971546;29;20197;-84
2022/01/20 00:09:17;;;;;;;9.50;7.20;;;;;;;3.51;100.00;99628.66;4916526;29;20208;-84
2022/01/20 00:28:43;;;;;;;8.67;7.47;;;;;;;3.50;100.00;99638.28;4978543;28;20212;-84
2022/01/20 00:31:30;;;;;;;10.70;8.07;;;;;;;3.51;100.00;99626.88;4971145;28;20204;-84
2022/01/20 00:34:12;;;;;;;10.73;8.67;;;;;;;3.36;100.00;99627.28;4980144;28;20203;-84
2022/01/20 00:39:30;;;;;;;11.50;8.20;;;;;;;3.44;100.00;99620.09;4983355;28;20192;-83
2022/01/20 00:41:59;;;;;;;10.77;8.30;;;;;;;3.43;100.00;99629.72;5072422;28;20220;-81
2022/01/20 00:44:28;;;;;;;11.00;8.00;;;;;;;3.47;100.00;99624.38;5110194;28;20216;-80
2022/01/20 00:46:57;;;;;;;10.27;8.10;;;;;;;3.33;100.00;99625.63;5104648;28;20187;-84
2022/01/20 00:49:29;;;;;;;11.23;8.47;;;;;;;3.33;100.00;99625.63;5101416;28;20219;-84
2022/01/20 00:51:57;;;;;;;11.50;8.47;;;;;;;3.54;100.00;99620.69;5099880;27;20191;-83
2022/01/20 00:54:27;;;;;;;13.03;8.60;;;;;;;3.54;100.00;99617.28;5177375;27;20215;-84
2022/01/20 00:56:58;;;;;;;11.17;8.43;;;;;;;3.52;100.00;99632.97;5173634;27;20200;-84
2022/01/20 00:59:29;;;;;;;12.10;8.03;;;;;;;3.51;100.00;99649.59;5170216;27;20216;-84
2022/01/20 01:02:01;;;;;;;10.57;8.20;;;;;;;3.51;100.00;99650.47;5177309;27;20217;-83
2022/01/20 01:04:34;;;;;;;11.20;8.73;;;;;;;3.36;100.00;99643.00;5171677;27;20185;-84
2022/01/20 01:07:22;;;;;;;13.03;8.80;;;;;;;3.35;100.00;99641.28;5170406;27;20185;-83
2022/01/20 01:09:52;;;;;;;11.43;8.13;;;;;;;3.20;100.00;99639.97;5173402;27;20616;-83
2022/01/20 01:12:30;;;;;;;10.33;8.10;;;;;;;3.20;100.00;99639.97;5165097;27;20201;-84
2022/01/20 01:15:08;;;;;;;11.33;7.80;;;;;;;3.23;100.00;99644.25;5176290;27;20193;-84
2022/01/20 01:21:11;;;;;;;11.93;8.20;;;;;;;3.22;100.00;99647.75;5073967;28;20193;-84
2022/01/20 01:23:42;;;;;;;11.63;8.20;;;;;;;3.39;100.00;99656.91;5068966;28;20203;-84
2022/01/20 01:26:15;;;;;;;12.33;8.10;;;;;;;3.32;100.00;99662.31;5144919;27;20193;-84
2022/01/20 01:28:45;;;;;;;10.37;8.07;;;;;;;3.10;100.00;99662.03;5172068;27;20193;-84
2022/01/20 01:31:30;;;;;;;10.73;7.47;;;;;;;3.22;100.00;99666.09;5172327;27;20197;-84
2022/01/20 01:34:04;;;;;;;13.80;8.40;;;;;;;3.12;100.00;99671.56;5175620;27;20189;-84
2022/01/20 01:36:48;;;;;;;10.57;8.23;;;;;;;3.16;100.00;99664.47;5172824;27;20224;-83
2022/01/20 01:39:18;;;;;;;13.77;7.77;;;;;;;3.16;100.00;99664.47;5174506;27;20631;-84
2022/01/20 01:41:47;;;;;;;14.20;8.67;;;;;;;3.25;100.00;99671.22;5178200;27;20221;-84
2022/01/20 01:44:23;;;;;;;12.90;8.00;;;;;;;3.22;100.00;99660.84;5174023;27;20189;-84
2022/01/20 01:46:52;;;;;;;13.33;8.23;;;;;;;3.23;100.00;99676.50;5171718;27;20223;-83
2022/01/20 01:49:21;;;;;;;11.93;6.80;;;;;;;3.30;100.00;99669.38;5173948;27;20185;-84
2022/01/20 01:51:54;;;;;;;14.10;8.03;;;;;;;3.18;100.00;99670.53;5173117;27;20193;-84
2022/01/20 01:54:23;;;;;;;14.67;7.67;;;;;;;3.15;100.00;99668.84;5178445;27;20253;-84
2022/01/20 01:56:52;;;;;;;15.23;7.70;;;;;;;3.17;100.00;99668.81;5177475;27;20272;-84
2022/01/20 01:59:21;;;;;;;12.53;7.93;;;;;;;3.15;100.00;99668.84;5154955;27;20322;-83
2022/01/20 02:01:49;;;;;;;17.30;7.33;;;;;;;3.06;100.00;99666.47;5164604;27;20216;-85
2022/01/20 02:04:20;;;;;;;15.20;7.60;;;;;;;3.07;100.00;99675.19;5178538;27;20222;-80
2022/01/20 02:18:35;;;;;;;12.60;7.13;;;;;;;2.98;100.00;99675.41;5048130;28;20205;-84
2022/01/20 02:21:05;;;;;;;12.57;7.07;;;;;;;2.97;100.00;99661.47;5053095;28;20189;-83
2022/01/20 02:23:33;;;;;;;15.93;7.37;;;;;;;2.99;100.00;99670.16;5049181;28;20200;-84
2022/01/20 02:26:02;;;;;;;19.00;7.47;;;;;;;2.98;100.00;99678.88;5050294;28;20644;-84
2022/01/20 02:28:30;;;;;;;18.00;7.33;;;;;;;2.93;100.00;99672.91;5047333;28;20196;-84
2022/01/20 02:30:59;;;;;;;16.17;7.17;;;;;;;2.87;100.00;99673.91;5046297;28;20230;-84
2022/01/20 02:33:30;;;;;;;14.77;7.47;;;;;;;2.81;100.00;99686.31;5048716;28;20223;-84
2022/01/20 02:36:02;;;;;;;16.47;7.30;;;;;;;2.81;100.00;99683.84;5044933;28;20205;-84
2022/01/20 02:38:38;;;;;;;20.03;7.13;;;;;;;2.68;100.00;99662.19;5044846;28;20247;-84
2022/01/20 02:46:39;;;;;;;16.30;5.97;;;;;;;2.70;100.00;99659.53;5068295;28;20207;-84
2022/01/20 02:49:13;;;;;;;21.03;6.30;;;;;;;2.64;100.00;99655.31;5070914;28;20211;-84
2022/01/20 02:51:48;;;;;;;16.30;5.90;;;;;;;2.75;100.00;99662.91;4990770;28;20796;-84
2022/01/20 02:54:19;;;;;;;14.33;5.43;;;;;;;2.65;100.00;99667.50;5050484;28;20205;-84
2022/01/20 02:56:52;;;;;;;18.73;5.73;;;;;;;2.69;100.00;99676.97;5071251;28;20265;-81
2022/01/20 02:59:20;;;;;;;19.13;6.37;;;;;;;2.57;100.00;99670.28;5045780;28;20205;-84
2022/01/20 03:01:49;;;;;;;17.80;6.37;;;;;;;2.56;100.00;99672.94;5048321;28;20371;-85
2022/01/20 03:04:20;;;;;;;14.13;5.63;;;;;;;2.56;100.00;99672.94;5049522;28;20253;-84
2022/01/20 03:06:48;;;;;;;19.47;5.73;;;;;;;2.55;100.00;99666.84;5045051;28;20628;-84
2022/01/20 03:09:18;;;;;;;19.03;6.27;;;;;;;2.48;100.00;99672.25;5038066;28;20201;-84
2022/01/20 03:11:47;;;;;;;15.77;4.80;;;;;;;2.52;100.00;99666.06;5046428;28;20316;-84
2022/01/20 03:14:17;;;;;;;17.37;5.40;;;;;;;2.46;100.00;99671.44;5047296;28;20193;-84
2022/01/20 03:16:47;;;;;;;17.00;5.93;;;;;;;2.45;100.00;99667.09;5049024;28;20189;-85
2022/01/20 03:19:16;;;;;;;16.33;5.80;;;;;;;2.42;100.00;99670.66;5053183;27;20205;-84
2022/01/20 03:21:46;;;;;;;12.67;5.30;;;;;;;2.42;100.00;99670.66;5057135;28;20250;-83
2022/01/20 03:24:14;;;;;;;19.70;5.30;;;;;;;2.61;100.00;99670.22;5050889;28;20193;-84
2022/01/20 03:26:44;;;;;;;22.47;5.17;;;;;;;2.61;100.00;99670.22;5054397;28;20205;-84
2022/01/20 03:29:15;;;;;;;20.43;5.57;;;;;;;2.69;100.00;99661.28;5071820;28;20200;-84
2022/01/20 03:31:45;;;;;;;15.67;5.27;;;;;;;2.76;100.00;99662.84;5065371;28;20196;-84
2022/01/20 03:34:15;;;;;;;24.23;5.77;;;;;;;2.84;100.00;99657.44;5062501;28;20226;-84
2022/01/20 03:36:43;;;;;;;22.50;5.00;;;;;;;2.80;100.00;99653.19;5066004;28;20201;-84
2022/01/20 03:39:12;;;;;;;17.27;5.10;;;;;;;2.78;100.00;99647.13;5064754;28;20193;-84
2022/01/20 03:41:40;;;;;;;15.03;5.20;;;;;;;2.84;100.00;99641.75;5078441;28;20236;-83
2022/01/20 03:44:12;;;;;;;14.53;4.53;;;;;;;2.83;100.00;99642.66;5089200;28;20249;-84
2022/01/20 03:46:40;;;;;;;17.37;5.17;;;;;;;2.73;100.00;99628.94;5082947;28;20214;-83
2022/01/20 03:49:24;;;;;;;24.70;5.07;;;;;;;2.81;100.00;99628.75;5082475;28;20187;-84
2022/01/20 03:51:53;;;;;;;13.63;5.30;;;;;;;2.70;100.00;99628.13;5087988;28;20190;-85
2022/01/20 03:54:26;;;;;;;17.73;4.87;;;;;;;2.73;100.00;99621.09;5057533;28;20196;-84
2022/01/20 03:56:58;;;;;;;16.90;4.83;;;;;;;2.69;100.00;99613.34;5057749;28;20199;-84
2022/01/20 03:59:28;;;;;;;22.83;5.50;;;;;;;2.69;100.00;99619.44;5066051;28;20226;-84
2022/01/20 04:01:56;;;;;;;16.93;5.07;;;;;;;2.80;100.00;99624.44;5067222;28;20215;-84
2022/01/20 04:04:24;;;;;;;18.23;4.67;;;;;;;2.83;100.00;99617.34;5065409;28;20275;-84
2022/01/20 04:06:54;;;;;;;15.57;5.07;;;;;;;2.85;100.00;99612.94;5068220;28;20204;-84
2022/01/20 04:09:22;;;;;;;17.67;5.17;;;;;;;2.78;100.00;99620.97;5075323;28;20196;-83
2022/01/20 04:11:51;;;;;;;15.63;5.13;;;;;;;2.81;100.00;99618.28;5072470;28;20203;-85
2022/01/20 04:14:23;;;;;;;17.23;5.67;;;;;;;2.74;100.00;99606.25;5065274;28;20269;-84
2022/01/20 04:17:02;;;;;;;12.00;4.73;;;;;;;2.74;100.00;99606.25;5068424;28;20212;-85
2022/01/20 04:19:32;;;;;;;13.60;5.50;;;;;;;2.56;100.00;99581.41;5062436;27;20201;-85
2022/01/20 04:22:03;;;;;;;19.00;6.20;;;;;;;2.53;100.00;99573.66;5059660;27;20277;-84
2022/01/20 04:24:32;;;;;;;20.90;6.17;;;;;;;;;;5058546;27;20208;-84
2022/01/20 04:27:01;;;;;;;16.53;6.10;;;;;;;2.73;100.00;99562.69;5065676;27;20652;-85
2022/01/20 04:29:30;;;;;;;20.77;6.53;;;;;;;2.75;100.00;99555.66;5053578;28;20201;-85
2022/01/20 04:31:59;;;;;;;18.70;7.27;;;;;;;2.75;100.00;99555.66;5059669;27;20246;-84
2022/01/20 04:34:28;;;;;;;21.03;6.73;;;;;;;2.95;100.00;99576.06;5063154;27;20193;-85
2022/01/20 04:36:59;;;;;;;23.20;7.13;;;;;;;2.95;100.00;99563.84;5053884;28;20204;-86
2022/01/20 04:39:31;;;;;;;25.33;6.67;;;;;;;3.06;100.00;99571.41;5112981;28;20203;-84
2022/01/20 04:42:01;;;;;;;20.27;5.97;;;;;;;3.08;100.00;99585.31;5118886;27;20316;-84
2022/01/20 04:44:38;;;;;;;23.50;7.00;;;;;;;3.00;100.00;99579.44;5128545;27;20218;-84
2022/01/20 04:47:19;;;;;;;20.23;6.33;;;;;;;3.00;100.00;99579.44;5133740;27;20186;-84
2022/01/20 04:58:07;;;;;;;19.97;7.40;;;;;;;3.01;100.00;99565.47;5077940;27;20195;-84
2022/01/20 05:00:36;;;;;;;23.43;6.97;;;;;;;2.99;100.00;99572.47;5053561;27;20204;-84
2022/01/20 05:03:07;;;;;;;23.87;6.73;;;;;;;3.06;100.00;99574.88;5057731;28;20213;-83
2022/01/20 05:05:36;;;;;;;21.83;7.67;;;;;;;2.99;100.00;99562.00;5057301;28;20197;-83
2022/01/20 05:08:06;;;;;;;23.13;6.60;;;;;;;2.90;100.00;99565.75;5057794;27;20231;-83
2022/01/20 05:10:35;;;;;;;19.67;6.50;;;;;;;2.84;100.00;99571.97;5083156;28;20242;-84
2022/01/20 05:13:08;;;;;;;19.43;6.73;;;;;;;2.83;100.00;99583.34;5060872;27;20193;-84
2022/01/20 05:15:37;;;;;;;23.47;7.43;;;;;;;2.86;100.00;99588.50;5058969;28;20213;-83
2022/01/20 05:18:08;;;;;;;20.77;6.40;;;;;;;2.91;100.00;99587.53;5089287;28;20219;-84
2022/01/20 05:20:39;;;;;;;22.67;7.03;;;;;;;2.93;100.00;99586.59;5073904;28;20199;-84
2022/01/20 05:23:10;;;;;;;26.00;7.00;;;;;;;2.90;100.00;99597.13;5093165;28;20234;-83
2022/01/20 05:25:38;;;;;;;26.50;7.63;;;;;;;2.83;100.00;99599.03;5091070;28;20208;-84
2022/01/20 05:28:06;;;;;;;26.90;7.23;;;;;;;2.87;100.00;99577.13;5092167;28;20192;-83
2022/01/20 05:30:34;;;;;;;20.67;6.10;;;;;;;2.97;100.00;99585.59;5087352;28;20654;-84
2022/01/20 05:33:03;;;;;;;20.37;6.50;;;;;;;3.03;100.00;99589.81;5090904;28;20196;-84
2022/01/20 05:35:33;;;;;;;15.57;6.13;;;;;;;2.99;100.00;99575.97;5095496;27;20202;-84
2022/01/20 05:38:02;;;;;;;22.40;7.03;;;;;;;2.99;100.00;99585.53;5113933;28;20202;-84
2022/01/20 05:40:30;;;;;;;21.43;5.80;;;;;;;3.07;100.00;99587.06;5111500;27;20187;-84
2022/01/20 05:42:59;;;;;;;14.27;5.53;;;;;;;3.08;100.00;99601.00;5093392;28;20249;-84
2022/01/20 05:45:29;;;;;;;13.33;5.80;;;;;;;3.11;100.00;99591.34;5093661;28;20200;-83
2022/01/20 05:48:09;;;;;;;21.43;5.50;;;;;;;3.12;100.00;99586.94;5088807;28;20202;-83
2022/01/20 05:50:39;;;;;;;20.00;5.50;;;;;;;3.16;100.00;99583.34;5087410;28;20246;-83
2022/01/20 05:53:10;;;;;;;17.23;6.30;;;;;;;3.03;100.00;99584.59;5051822;28;20254;-83
2022/01/20 05:55:43;;;;;;;20.53;5.80;;;;;;;3.01;100.00;99583.78;5038661;28;20197;-80
2022/01/20 05:58:11;;;;;;;17.77;5.20;;;;;;;3.08;100.00;99582.69;5031113;28;20189;-83
2022/01/20 06:00:40;;;;;;;20.33;5.67;;;;;;;3.05;100.00;99583.63;5031666;28;20208;-84
2022/01/20 06:05:56;;;;;;;12.93;5.03;;;;;;;3.19;100.00;99561.50;5052955;28;20196;-84
2022/01/20 06:08:26;;;;;;;19.47;5.33;;;;;;;3.19;100.00;99577.19;5047023;28;20204;-83
2022/01/20 06:10:56;;;;;;;24.47;6.57;;;;;;;3.17;100.00;99599.00;5069233;28;20191;-83
2022/01/20 06:13:26;;;;;;;15.30;5.50;;;;;;;3.15;100.00;99585.09;5050851;28;20226;-85
2022/01/20 06:15:55;;;;;;;18.17;5.27;;;;;;;3.23;100.00;99584.91;5084177;28;20195;-84
2022/01/20 06:18:24;;;;;;;15.53;5.50;;;;;;;3.21;100.00;99586.72;5090519;28;20252;-84
2022/01/20 06:20:53;;;;;;;19.57;5.20;;;;;;;3.24;100.00;99588.38;5085940;28;20245;-83
2022/01/20 06:23:24;;;;;;;17.37;4.80;;;;;;;3.36;100.00;99569.69;5087622;28;20202;-84
2022/01/20 06:25:55;;;;;;;11.83;3.83;;;;;;;3.38;100.00;99578.41;5090044;28;20252;-83
2022/01/20 06:28:23;;;;;;;8.13;3.57;;;;;;;3.37;100.00;99571.41;5081894;28;20196;-84
2022/01/20 06:30:52;;;;;;;11.50;3.77;;;;;;;3.47;100.00;99558.91;5052546;28;20240;-84
2022/01/20 06:33:22;;;;;;;10.30;3.70;;;;;;;3.42;100.00;99564.31;5101204;28;20206;-83
2022/01/20 06:35:52;;;;;;;12.90;3.70;;;;;;;3.42;100.00;99580.88;5104471;28;20228;-83
2022/01/20 06:38:21;;;;;;;14.97;3.37;;;;;;;3.43;100.00;99592.19;5107227;28;20206;-84
2022/01/20 06:40:54;;;;;;;8.83;3.90;;;;;;;3.40;100.00;99587.91;5104229;28;20211;-84
2022/01/20 06:43:22;;;;;;;14.00;4.27;;;;;;;3.45;100.00;99600.88;5105255;28;20203;-84
2022/01/20 06:45:52;;;;;;;9.27;3.70;;;;;;;3.41;100.00;99589.63;5104919;28;20293;-83
2022/01/20 06:48:21;;;;;;;16.63;4.10;;;;;;;3.40;100.00;99600.16;5072199;28;20203;-84
2022/01/20 06:50:49;;;;;;;10.83;4.00;;;;;;;3.35;100.00;99605.50;5109177;28;20215;-84
2022/01/20 06:53:19;;;;;;;12.80;4.67;;;;;;;3.39;100.00;99601.91;5105994;28;20356;-83
2022/01/20 06:55:47;;;;;;;19.50;4.97;;;;;;;;;;5110386;28;20201;-84
2022/01/20 06:58:21;;;;;;;12.63;3.97;;;;;;;3.45;100.00;99603.47;5109992;28;20195;-83
2022/01/20 07:00:50;;;;;;;14.17;4.87;;;;;;;3.39;100.00;99599.28;5109090;28;20203;-83
2022/01/20 07:03:18;;;;;;;16.87;4.37;;;;;;;3.42;100.00;99624.53;5106281;28;20229;-84
2022/01/20 07:05:47;;;;;;;11.17;4.00;;;;;;;3.38;100.00;99631.63;5107270;28;20280;-85
2022/01/20 07:08:18;;;;;;;12.77;4.07;;;;;;;3.36;100.00;99633.41;5099615;28;20206;-84
2022/01/20 07:10:46;;;;;;;14.30;3.70;;;;;;;3.35;100.00;99636.06;5110342;28;20183;-84
2022/01/20 07:13:14;;;;;;;14.67;4.37;;;;;;;3.29;100.00;99638.84;5105518;28;20206;-85
2022/01/20 07:15:44;;;;;;;13.97;4.27;;;;;;;3.25;100.00;99651.16;5105890;28;20209;-84
2022/01/20 07:18:14;;;;;;;10.10;3.70;;;;;;;3.28;100.00;99644.97;5107088;28;20187;-84
2022/01/20 07:20:42;;;;;;;19.07;4.57;;;;;;;3.26;100.00;99654.63;5108629;28;20199;-84
2022/01/20 07:23:11;;;;;;;11.37;4.20;;;;;;;3.28;100.00;99658.06;5109833;28;20202;-83
2022/01/20 07:25:39;;;;;;;16.90;4.10;;;;;;;3.29;100.00;99657.19;5079100;27;20221;-84
2022/01/20 07:28:17;;;;;;;12.27;4.10;;;;;;;3.27;100.00;99657.19;5076497;27;20700;-84
2022/01/20 07:30:47;;;;;;;21.30;4.03;;;;;;;3.14;100.00;99659.28;5080179;27;20252;-84
2022/01/20 07:33:19;;;;;;;16.43;4.47;;;;;;;3.28;100.00;99660.66;5080981;27;20196;-84
2022/01/20 07:35:48;;;;;;;9.30;3.57;;;;;;;3.27;100.00;99678.13;5076213;27;20197;-84
2022/01/20 07:38:19;;;;;;;10.93;4.00;;;;;;;3.26;100.00;99671.19;5076258;27;20209;-83
2022/01/20 07:40:48;;;;;;;10.50;3.53;;;;;;;3.35;100.00;99677.94;5101986;27;20249;-83
2022/01/20 07:43:16;;;;;;;10.90;3.93;;;;;;;3.16;100.00;99677.56;5170537;27;20189;-84
2022/01/20 07:45:45;;;;;;;11.17;4.03;;;;;;;3.16;100.00;99677.56;5167878;27;20213;-84
2022/01/20 07:48:17;;;;;;;13.37;4.20;;;;;;;3.28;100.00;99681.63;5173375;27;20220;-84
2022/01/20 07:50:45;;;;;;;11.67;3.03;;;;;;;3.29;100.00;99694.69;5160061;27;20193;-84
2022/01/20 07:53:15;;;;;;;11.40;3.27;;;;;;;3.33;100.00;99701.56;5171454;27;20283;-83
2022/01/20 07:55:44;;;;;;;6.67;2.80;;;;;;;3.34;100.00;99705.03;5170497;27;20209;-84
2022/01/20 07:58:17;;;;;;;7.03;2.63;;;;;;;3.30;100.00;99706.03;5176067;27;20200;-83
2022/01/20 08:00:45;;;;;;;5.90;2.17;;;;;;;3.27;100.00;99719.16;5167818;27;20189;-84
2022/01/20 08:03:13;;;;;;;9.10;1.87;;;;;;;3.21;100.00;99732.44;5171282;27;20264;-84
2022/01/20 08:05:43;;;;;;;6.13;1.20;;;;;;;3.15;100.00;99734.28;5170620;27;20223;-83
2022/01/20 08:08:14;;;;;;;6.23;1.80;;;;;;;3.12;100.00;99736.97;5192657;27;20217;-82
2022/01/20 08:10:44;;;;;;;2.83;1.30;;;;;;;3.06;100.00;99744.97;5191596;27;20184;-80
2022/01/20 08:13:13;;;;;;;4.03;1.93;;;;;;;3.07;100.00;99746.69;5184621;27;20193;-84
2022/01/20 08:15:47;;;;;;;2.43;1.60;;;;;;;3.11;100.00;99744.88;5173145;27;20244;-83
2022/01/20 08:18:16;;;;;;;3.53;1.77;;;;;;;3.11;100.00;99752.72;5167769;27;20685;-83
2022/01/20 08:20:46;;;;;;;5.40;2.03;;;;;;;3.12;100.00;99757.06;5167917;27;20205;-84
2022/01/20 08:23:14;;;;;;;8.77;1.93;;;;;;;3.14;100.00;99761.34;5165547;27;20245;-84
2022/01/20 08:25:43;;;;;;;5.10;1.80;;;;;;;3.17;100.00;99760.41;5165509;27;20265;-84
2022/01/20 08:28:12;;;;;;;3.00;1.90;;;;;;;3.17;100.00;99779.59;5119693;27;20197;-83
2022/01/20 08:30:43;;;;;;;3.67;1.70;;;;;;;3.14;100.00;99776.19;5171992;27;20185;-83
2022/01/20 08:33:11;;;;;;;4.07;1.80;;;;;;;3.19;100.00;99784.81;5160907;27;20189;-84
2022/01/20 08:35:39;;;;;;;5.17;1.83;;;;;;;3.17;100.00;99784.81;5169953;27;20240;-83
2022/01/20 08:38:09;;;;;;;4.90;1.97;;;;;;;3.16;100.00;99788.34;5167472;27;20200;-84
2022/01/20 08:40:38;;;;;;;4.00;1.80;;;;;;;3.17;100.00;99804.91;5172388;27;20204;-84
2022/01/20 08:43:07;;;;;;;6.77;1.60;;;;;;;2.93;100.00;99808.09;5164459;27;20205;-85
2022/01/20 08:45:38;;;;;;;4.90;1.80;;;;;;;2.88;100.00;99802.97;5166195;27;20247;-83
2022/01/20 08:48:08;;;;;;;4.47;2.03;;;;;;;2.59;100.00;99796.59;5175672;27;20201;-85
2022/01/20 08:50:38;;;;;;;5.13;1.70;;;;;;;2.74;100.00;99794.56;5166748;27;20229;-84
2022/01/20 08:53:12;;;;;;;3.67;1.60;;;;;;;2.79;100.00;99795.31;5169981;27;20197;-84
2022/01/20 08:55:42;;;;;;;6.33;1.63;;;;;;;2.72;100.00;99806.81;5176105;27;20244;-84
2022/01/20 08:58:10;;;;;;;5.80;1.33;;;;;;;2.85;100.00;99813.50;5171774;27;20189;-84
2022/01/20 09:00:39;;;;;;;5.80;1.40;;;;;;;2.91;100.00;99822.97;5168078;27;20197;-84
2022/01/20 09:03:10;;;;;;;5.07;1.40;;;;;;;2.91;100.00;99822.97;5170866;27;20216;-84
2022/01/20 09:05:39;;;;;;;5.80;1.20;;;;;;;2.84;100.00;99830.09;5174299;27;20212;-84
2022/01/20 09:08:10;;;;;;;10.20;1.47;;;;;;;2.96;100.00;99853.38;5170110;27;20660;-84
2022/01/20 09:10:45;;;;;;;4.90;1.20;;;;;;;2.94;100.00;99860.38;5176041;27;20192;-84
2022/01/20 09:16:02;;;;;;;3.53;1.10;;;;;;;3.32;100.00;99841.22;5173750;27;20207;-84
2022/01/20 09:18:30;;;;;;;7.13;1.30;;;;;;;3.54;100.00;99831.06;5166994;27;20196;-83
2022/01/20 09:20:58;;;;;;;8.53;1.67;;;;;;;3.56;100.00;99833.66;5170675;27;20211;-83
2022/01/20 09:23:29;;;;;;;9.73;1.60;;;;;;;3.61;100.00;99839.63;5173804;27;20236;-82
2022/01/20 09:25:58;;;;;;;11.07;1.90;;;;;;;3.68;100.00;99838.59;5195448;27;20212;-81
2022/01/20 09:28:26;;;;;;;4.63;1.30;;;;;;;3.66;100.00;99840.38;5196646;27;20183;-82
2022/01/20 09:31:01;;;;;;;9.20;1.90;;;;;;;3.76;100.00;99820.91;5176976;27;20207;-83
2022/01/20 09:33:29;;;;;;;6.93;1.90;;;;;;;3.82;100.00;99812.03;5171105;27;20189;-83
2022/01/20 09:36:01;;;;;;;7.50;1.50;;;;;;;3.92;100.00;99821.38;5172835;27;20200;-84
2022/01/20 09:38:30;;;;;;;6.90;1.40;;;;;;;3.96;100.00;99815.16;5171460;27;20205;-83
2022/01/20 09:41:03;;;;;;;5.27;1.60;;;;;;;3.88;100.00;99836.31;5172705;27;20235;-83
2022/01/20 09:43:32;;;;;;;5.53;1.63;;;;;;;3.98;100.00;99839.56;5175836;27;20181;-84
2022/01/20 09:46:02;;;;;;;6.10;1.90;;;;;;;4.02;100.00;99836.81;5177030;27;20213;-83
2022/01/20 09:48:32;;;;;;;10.53;1.90;;;;;;;4.12;100.00;99833.94;5170651;27;20189;-83
2022/01/20 09:51:03;;;;;;;8.10;1.70;;;;;;;4.26;100.00;99835.31;5178423;27;20188;-82
2022/01/20 09:53:37;;;;;;;6.37;1.67;;;;;;;4.57;100.00;99840.56;5178069;27;20281;-82
2022/01/20 09:56:07;;;;;;;7.70;1.63;;;;;;;4.42;100.00;99850.59;5174043;27;20245;-84
2022/01/20 09:58:46;;;;;;;10.43;1.97;;;;;;;4.47;100.00;99843.47;5176489;27;20196;-83
2022/01/20 10:01:17;;;;;;;8.33;1.87;;;;;;;4.60;100.00;99839.59;5168678;27;20276;-83
2022/01/20 10:03:49;;;;;;;5.30;1.50;;;;;;;4.51;100.00;99838.09;5170361;27;20257;-83
2022/01/20 10:06:18;;;;;;;6.23;1.80;;;;;;;4.43;100.00;99836.59;5172235;27;20265;-83
2022/01/20 10:08:59;;;;;;;7.53;1.70;;;;;;;4.16;100.00;99844.34;5172096;27;20192;-83
2022/01/20 10:11:50;;;;;;;4.40;1.10;;;;;;;3.91;100.00;99846.72;5177763;27;20189;-83
2022/01/20 10:14:19;;;;;;;6.27;1.80;;;;;;;3.81;100.00;99857.47;5085380;28;20195;-83
2022/01/20 10:16:49;;;;;;;3.27;1.33;;;;;;;3.70;100.00;99845.50;5082117;28;20200;-83
2022/01/20 10:19:26;;;;;;;8.07;1.80;;;;;;;3.65;100.00;99850.00;5057229;28;20214;-82
2022/01/20 10:21:55;;;;;;;11.13;1.63;;;;;;;3.70;100.00;99845.50;5111973;28;20184;-81
2022/01/20 10:24:27;;;;;;;7.77;1.90;;;;;;;3.76;100.00;99854.09;5086450;28;20199;-84
2022/01/20 10:26:56;;;;;;;8.17;2.20;;;;;;;3.72;100.00;99854.19;5088620;28;20219;-84
2022/01/20 10:29:26;;;;;;;9.53;1.53;;;;;;;3.83;100.00;99853.06;5090450;28;20274;-83
2022/01/20 10:32:14;;;;;;;13.93;2.37;;;;;;;3.81;100.00;99849.63;5124800;27;20232;-83
2022/01/20 10:34:42;;;;;;;14.60;2.20;;;;;;;4.08;100.00;99858.53;5171352;27;20185;-85
2022/01/20 10:37:15;;;;;;;6.57;2.00;;;;;;;4.41;100.00;99873.34;5171510;27;20249;-83
2022/01/20 10:39:48;;;;;;;5.47;1.73;;;;;;;4.66;100.00;99872.69;5174223;27;20202;-83
2022/01/20 10:42:20;;;;;;;10.07;2.23;;;;;;;4.82;100.00;99882.66;5176956;27;20247;-83
2022/01/20 10:44:51;;;;;;;9.33;1.80;;;;;;;4.82;100.00;99874.78;5166577;27;20205;-83
2022/01/20 10:47:26;;;;;;;5.80;1.80;;;;;;;4.49;100.00;99863.50;5172348;27;20222;-83
2022/01/20 10:49:56;;;;;;;13.90;2.10;;;;;;;4.81;100.00;99874.84;5177079;27;20191;-83
2022/01/20 10:52:35;;;;;;;9.27;1.70;;;;;;;5.06;100.00;99864.50;5164083;27;20640;-82
2022/01/20 10:55:09;;;;;;;7.07;1.80;;;;;;;4.99;100.00;99862.94;5165807;27;20196;-83
2022/01/20 10:57:40;;;;;;;8.70;1.63;;;;;;;5.21;100.00;99866.66;5167945;27;20192;-83
2022/01/20 11:00:11;;;;;;;4.83;1.53;;;;;;;5.13;100.00;99863.41;5173559;27;20207;-83
2022/01/20 11:02:41;;;;;;;7.63;1.57;;;;;;;4.91;100.00;99855.28;5166915;27;20241;-82
2022/01/20 11:05:10;;;;;;;9.40;1.70;;;;;;;5.24;100.00;99850.81;5177227;27;20196;-83
2022/01/20 11:07:40;;;;;;;7.97;1.90;;;;;;;5.54;100.00;99870.00;5166707;27;20693;-83
2022/01/20 11:10:11;;;;;;;4.10;1.40;;;;;;;5.60;100.00;99861.06;5174595;27;20204;-82
2022/01/20 11:12:40;;;;;;;6.53;1.77;;;;;;;5.31;100.00;99854.09;5137457;27;20196;-83
2022/01/20 11:15:11;;;;;;;6.87;1.63;;;;;;;5.16;100.00;99855.44;5170684;27;20225;-83
2022/01/20 11:17:41;;;;;;;6.10;1.63;;;;;;;5.07;100.00;99850.44;5172908;27;20189;-83
2022/01/20 11:20:13;;;;;;;5.33;1.33;;;;;;;4.90;100.00;99840.47;5172449;27;20192;-83
2022/01/20 11:22:53;;;;;;;4.43;2.03;;;;;;;4.82;100.00;99853.81;5148741;27;20194;-83
2022/01/20 11:25:26;;;;;;;5.67;1.50;;;;;;;4.53;100.00;99845.91;5051610;28;20189;-83
2022/01/20 11:28:05;;;;;;;8.93;1.80;;;;;;;4.44;100.00;99857.56;5040277;28;20220;-83
2022/01/20 11:30:35;;;;;;;8.37;1.77;;;;;;;4.29;100.00;99863.19;5043456;28;20189;-83
2022/01/20 11:33:06;;;;;;;5.97;1.73;;;;;;;4.16;100.00;99867.91;5049006;28;20193;-83
2022/01/20 11:35:43;;;;;;;9.53;1.90;;;;;;;4.02;100.00;99865.66;5046956;28;20189;-83
2022/01/20 11:38:15;;;;;;;10.77;1.40;;;;;;;3.87;100.00;99888.78;5046174;28;20308;-82
2022/01/20 11:40:55;;;;;;;9.13;1.90;;;;;;;3.63;100.00;99880.59;5051273;28;20236;-83
2022/01/20 11:43:35;;;;;;;11.03;2.00;;;;;;;3.32;100.00;99900.56;5101515;27;20196;-83
2022/01/20 11:46:10;;;;;;;8.03;2.10;;;;;;;3.05;100.00;99912.50;5148413;27;20208;-84
2022/01/20 11:48:53;;;;;;;5.63;2.10;;;;;;;2.76;100.00;99907.88;5077821;27;20266;-83
2022/01/20 11:51:23;;;;;;;10.10;2.00;;;;;;;2.65;100.00;99923.78;5079774;27;20200;-83
2022/01/20 11:54:11;;;;;;;9.30;2.30;;;;;;;2.49;100.00;99919.72;5088922;28;20274;-84
2022/01/20 11:56:44;;;;;;;8.80;1.90;;;;;;;2.36;100.00;99906.03;5082439;28;20191;-83
2022/01/20 11:59:16;;;;;;;10.53;1.80;;;;;;;2.40;100.00;99899.84;5087547;28;20195;-84
2022/01/20 12:01:51;;;;;;;9.47;1.77;;;;;;;2.32;100.00;99904.38;5086144;28;20195;-84
2022/01/20 12:04:32;;;;;;;6.57;1.77;;;;;;;2.29;100.00;99910.50;5078853;28;20252;-83
2022/01/20 12:07:00;;;;;;;8.00;1.73;;;;;;;2.37;100.00;99909.50;5083778;28;20240;-84
2022/01/20 12:09:35;;;;;;;8.67;2.27;;;;;;;2.43;100.00;99904.16;5081346;28;20183;-84
2022/01/20 12:12:22;;;;;;;12.60;2.30;;;;;;;2.74;100.00;99896.56;5074715;28;20199;-84
2022/01/20 12:14:54;;;;;;;9.70;1.93;;;;;;;3.43;100.00;99902.03;5125763;28;20202;-83
2022/01/20 12:17:26;;;;;;;8.27;2.17;;;;;;;4.07;100.00;99894.38;5122421;28;20198;-84
2022/01/20 12:19:56;;;;;;;5.43;1.57;;;;;;;4.41;100.00;99881.22;5122891;28;20206;-84
2022/01/20 12:22:25;;;;;;;8.30;2.00;;;;;;;4.74;100.00;99870.69;5128337;28;20306;-83
2022/01/20 12:24:57;;;;;;;9.37;1.97;;;;;;;5.25;100.00;99876.16;5125794;28;20609;-84
2022/01/20 12:27:29;;;;;;;7.53;1.93;;;;;;;5.25;100.00;99885.81;5044410;28;20217;-83
2022/01/20 12:29:59;;;;;;;6.17;1.50;;;;;;;5.00;100.00;99886.53;5049845;28;20205;-83
2022/01/20 12:32:28;;;;;;;6.27;1.70;;;;;;;4.72;100.00;99881.22;5057218;28;20204;-82
2022/01/20 12:35:00;;;;;;;6.90;2.10;;;;;;;4.69;100.00;99876.06;5088807;28;20207;-82
2022/01/20 12:37:41;;;;;;;6.33;1.87;;;;;;;4.68;100.00;99876.97;5093038;28;20196;-82
2022/01/20 12:40:20;;;;;;;5.47;1.40;;;;;;;4.37;100.00;99868.25;5092314;28;20229;-82
2022/01/20 12:42:54;;;;;;;7.17;1.40;;;;;;;4.09;100.00;99873.38;5089897;28;20195;-82
2022/01/20 12:48:18;;;;;;;6.73;1.53;;;;;;;3.48;100.00;99893.22;5094985;28;20215;-83